Terminal Aerodrome Forecast
Issued by NWS Topeka, KS

Home | Current Version | Previous Version | Graphics & Text | Print | Product List | Glossary Off
Versions: 1 2 3 4 5 6 7 8 9 10 11 12

000
FTUS43 KTOP 312300
TAFTOP
TAF
KTOP 312333Z 0100/0124 09004KT P6SM FEW050 SCT250
     FM010800 14003KT P6SM VCTS BKN100CB
     FM011500 15003KT P6SM SCT250=

USA.gov is the U.S. government's official web portal to all federal, state and local government web resources and services.